sensor_id;sensor_type;location;lat;lon;timestamp;pressure;altitude;pressure_sealevel;temperature;humidity
77590;BME280;66746;51.328;12.332;2023-09-19T00:01:30;99580.41;;;17.53;100.00
77590;BME280;66746;51.328;12.332;2023-09-19T00:03:58;99581.16;;;17.55;100.00
77590;BME280;66746;51.328;12.332;2023-09-19T00:06:24;99580.94;;;17.58;100.00
77590;BME280;66746;51.328;12.332;2023-09-19T00:08:51;99572.94;;;17.55;100.00
77590;BME280;66746;51.328;12.332;2023-09-19T00:11:17;99589.16;;;17.58;100.00
77590;BME280;66746;51.328;12.332;2023-09-19T00:13:47;99587.53;;;17.55;100.00
77590;BME280;66746;51.328;12.332;2023-09-19T00:16:14;99591.38;;;17.53;100.00
77590;BME280;66746;51.328;12.332;2023-09-19T00:18:40;99597.09;;;17.50;100.00
77590;BME280;66746;51.328;12.332;2023-09-19T00:21:08;99602.78;;;17.47;100.00
77590;BME280;66746;51.328;12.332;2023-09-19T00:23:35;99610.16;;;17.46;100.00
77590;BME280;66746;51.328;12.332;2023-09-19T00:26:01;99597.56;;;17.44;100.00
77590;BME280;66746;51.328;12.332;2023-09-19T00:28:28;99609.81;;;17.51;100.00
77590;BME280;66746;51.328;12.332;2023-09-19T00:30:54;99594.47;;;17.48;100.00
77590;BME280;66746;51.328;12.332;2023-09-19T00:33:21;99591.50;;;17.51;100.00
77590;BME280;66746;51.328;12.332;2023-09-19T00:35:48;99588.97;;;17.48;100.00
77590;BME280;66746;51.328;12.332;2023-09-19T00:38:16;99582.63;;;17.48;100.00
77590;BME280;66746;51.328;12.332;2023-09-19T00:40:44;99588.09;;;17.48;100.00
77590;BME280;66746;51.328;12.332;2023-09-19T00:43:10;99582.84;;;17.45;100.00
77590;BME280;66746;51.328;12.332;2023-09-19T00:45:37;99581.84;;;17.46;100.00
77590;BME280;66746;51.328;12.332;2023-09-19T00:48:05;99574.59;;;17.45;100.00
77590;BME280;66746;51.328;12.332;2023-09-19T00:50:32;99579.34;;;17.43;100.00
77590;BME280;66746;51.328;12.332;2023-09-19T00:52:59;99578.22;;;17.45;100.00
77590;BME280;66746;51.328;12.332;2023-09-19T00:55:29;99575.50;;;17.45;100.00
77590;BME280;66746;51.328;12.332;2023-09-19T00:57:56;99579.13;;;17.46;100.00
77590;BME280;66746;51.328;12.332;2023-09-19T01:00:24;99568.38;;;17.43;100.00
77590;BME280;66746;51.328;12.332;2023-09-19T01:02:51;99577.59;;;17.42;100.00
77590;BME280;66746;51.328;12.332;2023-09-19T01:05:18;99582.31;;;17.40;100.00
77590;BME280;66746;51.328;12.332;2023-09-19T01:07:44;99573.69;;;17.33;100.00
77590;BME280;66746;51.328;12.332;2023-09-19T01:10:14;99579.19;;;17.33;100.00
77590;BME280;66746;51.328;12.332;2023-09-19T01:12:51;99584.66;;;17.33;100.00
77590;BME280;66746;51.328;12.332;2023-09-19T01:15:25;99593.75;;;17.34;100.00
77590;BME280;66746;51.328;12.332;2023-09-19T01:17:59;99586.03;;;17.28;100.00
77590;BME280;66746;51.328;12.332;2023-09-19T01:20:35;99587.38;;;17.22;100.00
77590;BME280;66746;51.328;12.332;2023-09-19T01:23:11;99586.38;;;17.23;100.00
77590;BME280;66746;51.328;12.332;2023-09-19T01:26:06;99604.91;;;17.20;100.00
77590;BME280;66746;51.328;12.332;2023-09-19T01:28:39;99611.09;;;17.11;100.00
77590;BME280;66746;51.328;12.332;2023-09-19T01:31:11;99607.81;;;17.06;100.00
77590;BME280;66746;51.328;12.332;2023-09-19T01:33:55;99609.16;;;17.00;100.00
77590;BME280;66746;51.328;12.332;2023-09-19T01:36:21;99621.47;;;16.95;100.00
77590;BME280;66746;51.328;12.332;2023-09-19T01:38:48;99603.28;;;16.94;100.00
77590;BME280;66746;51.328;12.332;2023-09-19T01:41:18;99614.13;;;16.95;100.00
77590;BME280;66746;51.328;12.332;2023-09-19T01:43:49;99615.09;;;16.94;100.00
77590;BME280;66746;51.328;12.332;2023-09-19T01:46:21;99615.09;;;16.94;100.00
77590;BME280;66746;51.328;12.332;2023-09-19T01:48:57;99623.44;;;16.93;100.00
77590;BME280;66746;51.328;12.332;2023-09-19T01:51:34;99628.03;;;16.92;100.00
77590;BME280;66746;51.328;12.332;2023-09-19T01:54:09;99624.78;;;16.87;100.00
77590;BME280;66746;51.328;12.332;2023-09-19T01:56:38;99627.41;;;16.89;100.00
77590;BME280;66746;51.328;12.332;2023-09-19T01:59:09;99624.78;;;16.87;100.00
77590;BME280;66746;51.328;12.332;2023-09-19T02:01:37;99633.41;;;16.94;100.00
77590;BME280;66746;51.328;12.332;2023-09-19T02:04:05;99644.91;;;16.99;100.00
77590;BME280;66746;51.328;12.332;2023-09-19T02:06:33;99641.59;;;17.06;100.00
77590;BME280;66746;51.328;12.332;2023-09-19T02:09:00;99650.97;;;17.15;100.00
77590;BME280;66746;51.328;12.332;2023-09-19T02:11:32;99646.56;;;17.25;100.00
77590;BME280;66746;51.328;12.332;2023-09-19T02:13:58;99651.78;;;17.28;100.00
77590;BME280;66746;51.328;12.332;2023-09-19T02:16:25;99635.34;;;17.28;99.46
77590;BME280;66746;51.328;12.332;2023-09-19T02:18:53;99648.25;;;17.38;99.00
77590;BME280;66746;51.328;12.332;2023-09-19T02:21:20;99652.84;;;17.38;98.41
77590;BME280;66746;51.328;12.332;2023-09-19T02:23:47;99664.56;;;17.40;97.78
77590;BME280;66746;51.328;12.332;2023-09-19T02:26:13;99662.72;;;17.40;98.31
77590;BME280;66746;51.328;12.332;2023-09-19T02:28:40;99669.28;;;17.38;98.09
77590;BME280;66746;51.328;12.332;2023-09-19T02:31:08;99664.78;;;17.37;98.77
77590;BME280;66746;51.328;12.332;2023-09-19T02:33:34;99674.78;;;17.38;97.56
77590;BME280;66746;51.328;12.332;2023-09-19T02:36:03;99672.78;;;17.40;96.32
77590;BME280;66746;51.328;12.332;2023-09-19T02:38:29;99665.53;;;17.39;96.34
77590;BME280;66746;51.328;12.332;2023-09-19T02:40:56;99671.91;;;17.39;96.76
77590;BME280;66746;51.328;12.332;2023-09-19T02:43:23;99671.28;;;17.36;97.09
77590;BME280;66746;51.328;12.332;2023-09-19T02:45:50;99661.41;;;17.33;96.83
77590;BME280;66746;51.328;12.332;2023-09-19T02:48:16;99671.97;;;17.27;97.20
77590;BME280;66746;51.328;12.332;2023-09-19T02:50:43;99669.25;;;17.27;96.67
77590;BME280;66746;51.328;12.332;2023-09-19T02:53:11;99671.09;;;17.26;97.63
77590;BME280;66746;51.328;12.332;2023-09-19T02:55:38;99682.44;;;17.33;95.67
77590;BME280;66746;51.328;12.332;2023-09-19T02:58:06;99677.22;;;17.30;97.11
77590;BME280;66746;51.328;12.332;2023-09-19T03:00:33;99681.59;;;17.32;96.21
77590;BME280;66746;51.328;12.332;2023-09-19T03:03:00;99679.72;;;17.33;96.56
77590;BME280;66746;51.328;12.332;2023-09-19T03:05:26;99682.22;;;17.36;94.68
77590;BME280;66746;51.328;12.332;2023-09-19T03:07:53;99664.47;;;17.29;93.73
77590;BME280;66746;51.328;12.332;2023-09-19T03:10:22;99690.97;;;17.41;95.26
77590;BME280;66746;51.328;12.332;2023-09-19T03:12:50;99685.72;;;17.38;94.19
77590;BME280;66746;51.328;12.332;2023-09-19T03:15:17;99697.88;;;17.46;93.62
77590;BME280;66746;51.328;12.332;2023-09-19T03:17:47;99694.25;;;17.46;94.08
77590;BME280;66746;51.328;12.332;2023-09-19T03:20:18;99696.66;;;17.50;93.23
77590;BME280;66746;51.328;12.332;2023-09-19T03:22:46;99695.97;;;17.47;93.49
77590;BME280;66746;51.328;12.332;2023-09-19T03:25:13;99696.66;;;17.50;93.75
77590;BME280;66746;51.328;12.332;2023-09-19T03:27:44;99710.03;;;17.55;92.33
77590;BME280;66746;51.328;12.332;2023-09-19T03:30:12;99706.31;;;17.56;92.28
77590;BME280;66746;51.328;12.332;2023-09-19T03:32:44;99706.53;;;17.53;92.71
77590;BME280;66746;51.328;12.332;2023-09-19T03:35:11;99701.28;;;17.50;92.19
77590;BME280;66746;51.328;12.332;2023-09-19T03:37:38;99695.22;;;17.45;92.59
77590;BME280;66746;51.328;12.332;2023-09-19T03:40:05;99708.09;;;17.44;92.74
77590;BME280;66746;51.328;12.332;2023-09-19T03:42:32;99713.66;;;17.43;92.55
77590;BME280;66746;51.328;12.332;2023-09-19T03:45:00;99711.38;;;17.37;92.99
77590;BME280;66746;51.328;12.332;2023-09-19T03:47:26;99709.84;;;17.33;92.59
77590;BME280;66746;51.328;12.332;2023-09-19T03:49:54;99710.63;;;17.35;93.65
77590;BME280;66746;51.328;12.332;2023-09-19T03:52:21;99713.09;;;17.27;93.62
77590;BME280;66746;51.328;12.332;2023-09-19T03:54:47;99711.19;;;17.27;93.66
77590;BME280;66746;51.328;12.332;2023-09-19T03:57:14;99723.28;;;17.25;94.20
77590;BME280;66746;51.328;12.332;2023-09-19T03:59:40;99721.31;;;17.27;94.82
77590;BME280;66746;51.328;12.332;2023-09-19T04:02:08;99721.97;;;17.18;94.81
77590;BME280;66746;51.328;12.332;2023-09-19T04:04:35;99720.88;;;17.20;94.00
77590;BME280;66746;51.328;12.332;2023-09-19T04:07:02;99731.22;;;17.17;94.60
77590;BME280;66746;51.328;12.332;2023-09-19T04:09:28;99736.44;;;17.20;95.57
77590;BME280;66746;51.328;12.332;2023-09-19T04:11:55;99742.16;;;17.17;93.57
77590;BME280;66746;51.328;12.332;2023-09-19T04:14:21;99729.91;;;17.10;94.50
77590;BME280;66746;51.328;12.332;2023-09-19T04:16:48;99741.84;;;17.09;95.59
77590;BME280;66746;51.328;12.332;2023-09-19T04:19:16;99752.81;;;17.09;94.76
77590;BME280;66746;51.328;12.332;2023-09-19T04:21:43;99750.28;;;17.06;94.49
77590;BME280;66746;51.328;12.332;2023-09-19T04:24:10;99745.16;;;17.01;94.87
77590;BME280;66746;51.328;12.332;2023-09-19T04:26:36;99754.22;;;17.02;95.49
77590;BME280;66746;51.328;12.332;2023-09-19T04:29:03;99740.66;;;17.00;93.89
77590;BME280;66746;51.328;12.332;2023-09-19T04:31:29;99750.06;;;17.09;92.22
77590;BME280;66746;51.328;12.332;2023-09-19T04:33:56;99755.31;;;17.12;92.22
77590;BME280;66746;51.328;12.332;2023-09-19T04:36:24;99755.56;;;17.09;92.72
77590;BME280;66746;51.328;12.332;2023-09-19T04:41:41;99761.25;;;17.06;93.95
77590;BME280;66746;51.328;12.332;2023-09-19T04:44:08;99776.16;;;17.02;92.61
77590;BME280;66746;51.328;12.332;2023-09-19T04:46:34;99778.13;;;17.00;94.29
77590;BME280;66746;51.328;12.332;2023-09-19T04:49:01;99779.47;;;16.94;93.09
77590;BME280;66746;51.328;12.332;2023-09-19T04:51:29;99789.53;;;16.94;93.16
77590;BME280;66746;51.328;12.332;2023-09-19T04:53:56;99787.78;;;16.93;92.84
77590;BME280;66746;51.328;12.332;2023-09-19T04:56:22;99800.41;;;16.95;92.22
77590;BME280;66746;51.328;12.332;2023-09-19T04:58:49;99790.66;;;16.91;91.58
77590;BME280;66746;51.328;12.332;2023-09-19T05:01:15;99793.50;;;16.90;91.69
77590;BME280;66746;51.328;12.332;2023-09-19T05:03:42;99789.25;;;16.86;90.61
77590;BME280;66746;51.328;12.332;2023-09-19T05:06:08;99806.44;;;16.88;90.65
77590;BME280;66746;51.328;12.332;2023-09-19T05:08:36;99802.56;;;16.90;90.25
77590;BME280;66746;51.328;12.332;2023-09-19T05:11:03;99807.09;;;16.91;91.01
77590;BME280;66746;51.328;12.332;2023-09-19T05:13:29;99790.22;;;16.85;89.96
77590;BME280;66746;51.328;12.332;2023-09-19T05:15:59;99792.19;;;16.83;90.14
77590;BME280;66746;51.328;12.332;2023-09-19T05:18:26;99804.91;;;16.84;90.91
77590;BME280;66746;51.328;12.332;2023-09-19T05:20:52;99799.88;;;16.77;90.14
77590;BME280;66746;51.328;12.332;2023-09-19T05:23:19;99807.31;;;16.75;90.45
77590;BME280;66746;51.328;12.332;2023-09-19T05:25:47;99820.25;;;16.73;90.26
77590;BME280;66746;51.328;12.332;2023-09-19T05:28:16;99821.44;;;16.69;89.86
77590;BME280;66746;51.328;12.332;2023-09-19T05:30:43;99821.56;;;16.68;89.65
77590;BME280;66746;51.328;12.332;2023-09-19T05:33:13;99817.38;;;16.62;90.94
77590;BME280;66746;51.328;12.332;2023-09-19T05:35:40;99831.63;;;16.67;90.58
77590;BME280;66746;51.328;12.332;2023-09-19T05:38:07;99824.38;;;16.66;89.98
77590;BME280;66746;51.328;12.332;2023-09-19T05:40:33;99830.09;;;16.63;91.06
77590;BME280;66746;51.328;12.332;2023-09-19T05:43:01;99826.34;;;16.64;89.92
77590;BME280;66746;51.328;12.332;2023-09-19T05:45:28;99825.94;;;16.58;90.11
77590;BME280;66746;51.328;12.332;2023-09-19T05:47:54;99838.72;;;16.57;89.92
77590;BME280;66746;51.328;12.332;2023-09-19T05:50:21;99831.59;;;16.55;90.75
77590;BME280;66746;51.328;12.332;2023-09-19T05:52:51;99840.81;;;16.54;89.69
77590;BME280;66746;51.328;12.332;2023-09-19T05:55:18;99838.19;;;16.52;88.58
77590;BME280;66746;51.328;12.332;2023-09-19T05:57:49;99837.06;;;16.55;89.48
77590;BME280;66746;51.328;12.332;2023-09-19T06:00:18;99839.50;;;16.59;88.57
77590;BME280;66746;51.328;12.332;2023-09-19T06:02:44;99839.94;;;16.66;86.41
77590;BME280;66746;51.328;12.332;2023-09-19T06:05:11;99845.19;;;16.69;85.36
77590;BME280;66746;51.328;12.332;2023-09-19T06:07:37;99851.00;;;16.77;84.89
77590;BME280;66746;51.328;12.332;2023-09-19T06:10:04;99851.97;;;16.76;84.79
77590;BME280;66746;51.328;12.332;2023-09-19T06:12:31;99870.28;;;16.75;85.23
77590;BME280;66746;51.328;12.332;2023-09-19T06:14:58;99866.69;;;16.88;85.60
77590;BME280;66746;51.328;12.332;2023-09-19T06:17:26;99873.81;;;17.03;84.48
77590;BME280;66746;51.328;12.332;2023-09-19T06:19:52;99877.00;;;17.09;83.47
77590;BME280;66746;51.328;12.332;2023-09-19T06:22:19;99887.72;;;17.25;83.23
77590;BME280;66746;51.328;12.332;2023-09-19T06:24:46;99889.22;;;17.41;84.53
77590;BME280;66746;51.328;12.332;2023-09-19T06:27:12;99884.59;;;17.67;82.80
77590;BME280;66746;51.328;12.332;2023-09-19T06:29:39;99894.28;;;17.60;81.36
77590;BME280;66746;51.328;12.332;2023-09-19T06:32:07;99896.41;;;17.80;82.42
77590;BME280;66746;51.328;12.332;2023-09-19T06:34:35;99905.56;;;17.92;82.32
77590;BME280;66746;51.328;12.332;2023-09-19T06:37:01;99902.81;;;18.04;82.00
77590;BME280;66746;51.328;12.332;2023-09-19T06:39:28;99902.97;;;17.90;79.23
77590;BME280;66746;51.328;12.332;2023-09-19T06:41:57;99893.97;;;17.88;79.91
77590;BME280;66746;51.328;12.332;2023-09-19T06:44:24;99900.31;;;18.01;79.60
77590;BME280;66746;51.328;12.332;2023-09-19T06:46:52;99900.19;;;18.03;79.96
77590;BME280;66746;51.328;12.332;2023-09-19T06:49:19;99900.06;;;18.04;79.38
77590;BME280;66746;51.328;12.332;2023-09-19T06:51:47;99902.84;;;18.15;78.19
77590;BME280;66746;51.328;12.332;2023-09-19T06:54:16;99904.47;;;17.94;79.17
77590;BME280;66746;51.328;12.332;2023-09-19T06:56:43;99910.91;;;18.06;77.25
77590;BME280;66746;51.328;12.332;2023-09-19T06:59:10;99912.91;;;18.27;77.87
77590;BME280;66746;51.328;12.332;2023-09-19T07:01:36;99918.78;;;18.46;76.88
77590;BME280;66746;51.328;12.332;2023-09-19T07:04:03;99919.78;;;18.45;75.24
77590;BME280;66746;51.328;12.332;2023-09-19T07:06:30;99914.66;;;18.76;73.59
77590;BME280;66746;51.328;12.332;2023-09-19T07:08:58;99916.16;;;18.80;74.38
77590;BME280;66746;51.328;12.332;2023-09-19T07:11:24;99924.19;;;18.94;72.16
77590;BME280;66746;51.328;12.332;2023-09-19T07:13:51;99937.66;;;18.86;69.20
77590;BME280;66746;51.328;12.332;2023-09-19T07:16:17;99935.50;;;18.78;72.42
77590;BME280;66746;51.328;12.332;2023-09-19T07:18:44;99938.84;;;18.71;69.79
77590;BME280;66746;51.328;12.332;2023-09-19T07:21:10;99944.69;;;18.66;69.27
77590;BME280;66746;51.328;12.332;2023-09-19T07:23:37;99949.88;;;18.82;69.41
77590;BME280;66746;51.328;12.332;2023-09-19T07:26:05;99955.13;;;18.74;69.57
77590;BME280;66746;51.328;12.332;2023-09-19T07:28:32;99972.28;;;18.65;68.08
77590;BME280;66746;51.328;12.332;2023-09-19T07:31:01;99968.19;;;18.46;68.78
77590;BME280;66746;51.328;12.332;2023-09-19T07:33:28;99979.81;;;18.26;69.69
77590;BME280;66746;51.328;12.332;2023-09-19T07:35:54;99980.50;;;18.53;69.00
77590;BME280;66746;51.328;12.332;2023-09-19T07:38:21;99986.81;;;18.78;68.94
77590;BME280;66746;51.328;12.332;2023-09-19T07:40:48;99985.59;;;18.82;68.36
77590;BME280;66746;51.328;12.332;2023-09-19T07:43:16;99993.28;;;18.89;66.20
77590;BME280;66746;51.328;12.332;2023-09-19T07:45:42;99985.06;;;19.00;67.56
77590;BME280;66746;51.328;12.332;2023-09-19T07:48:09;100001.44;;;19.13;67.05
77590;BME280;66746;51.328;12.332;2023-09-19T07:50:36;100007.56;;;18.82;67.93
77590;BME280;66746;51.328;12.332;2023-09-19T07:53:02;100006.56;;;18.72;68.73
77590;BME280;66746;51.328;12.332;2023-09-19T07:55:29;100005.81;;;18.70;69.44
77590;BME280;66746;51.328;12.332;2023-09-19T07:57:56;100005.09;;;18.79;70.77
77590;BME280;66746;51.328;12.332;2023-09-19T08:00:26;100006.06;;;18.78;67.45
77590;BME280;66746;51.328;12.332;2023-09-19T08:02:53;100009.19;;;18.73;69.47
77590;BME280;66746;51.328;12.332;2023-09-19T08:05:29;100018.88;;;18.66;69.18
77590;BME280;66746;51.328;12.332;2023-09-19T08:07:56;100018.94;;;18.53;70.28
77590;BME280;66746;51.328;12.332;2023-09-19T08:10:22;100012.81;;;18.37;67.56
77590;BME280;66746;51.328;12.332;2023-09-19T08:12:49;100014.59;;;18.26;68.24
77590;BME280;66746;51.328;12.332;2023-09-19T08:15:17;100021.94;;;18.25;68.28
77590;BME280;66746;51.328;12.332;2023-09-19T08:17:46;100030.44;;;18.22;69.41
77590;BME280;66746;51.328;12.332;2023-09-19T08:20:13;100025.16;;;18.19;67.92
77590;BME280;66746;51.328;12.332;2023-09-19T08:22:39;100021.63;;;18.17;68.13
77590;BME280;66746;51.328;12.332;2023-09-19T08:25:06;100030.00;;;18.16;70.88
77590;BME280;66746;51.328;12.332;2023-09-19T08:27:33;100028.13;;;18.16;69.82
77590;BME280;66746;51.328;12.332;2023-09-19T08:29:59;100025.91;;;18.21;71.41
77590;BME280;66746;51.328;12.332;2023-09-19T08:32:26;100019.91;;;18.16;70.66
77590;BME280;66746;51.328;12.332;2023-09-19T08:34:54;100022.28;;;18.21;72.31
77590;BME280;66746;51.328;12.332;2023-09-19T08:37:21;100024.94;;;18.22;70.32
77590;BME280;66746;51.328;12.332;2023-09-19T08:39:47;100017.47;;;18.24;71.11
77590;BME280;66746;51.328;12.332;2023-09-19T08:42:16;100013.06;;;18.34;72.86
77590;BME280;66746;51.328;12.332;2023-09-19T08:44:42;100025.94;;;18.58;72.10
77590;BME280;66746;51.328;12.332;2023-09-19T08:47:10;100025.72;;;18.61;69.62
77590;BME280;66746;51.328;12.332;2023-09-19T08:49:44;100021.81;;;18.52;71.31
77590;BME280;66746;51.328;12.332;2023-09-19T08:52:20;100020.28;;;18.35;69.20
77590;BME280;66746;51.328;12.332;2023-09-19T08:54:48;100013.72;;;18.25;69.29
77590;BME280;66746;51.328;12.332;2023-09-19T08:57:18;100008.19;;;18.38;70.13
77590;BME280;66746;51.328;12.332;2023-09-19T08:59:46;100018.31;;;18.50;68.44
77590;BME280;66746;51.328;12.332;2023-09-19T09:02:14;100029.50;;;18.71;68.60
77590;BME280;66746;51.328;12.332;2023-09-19T09:04:43;100027.34;;;18.87;67.87
77590;BME280;66746;51.328;12.332;2023-09-19T09:07:11;100030.84;;;18.89;66.98
77590;BME280;66746;51.328;12.332;2023-09-19T09:09:39;100019.16;;;18.98;66.12
77590;BME280;66746;51.328;12.332;2023-09-19T09:12:06;100018.47;;;19.07;65.84
77590;BME280;66746;51.328;12.332;2023-09-19T09:14:32;100025.22;;;19.14;65.52
77590;BME280;66746;51.328;12.332;2023-09-19T09:16:59;100012.16;;;19.28;67.03
77590;BME280;66746;51.328;12.332;2023-09-19T09:19:26;100020.69;;;19.36;64.25
77590;BME280;66746;51.328;12.332;2023-09-19T09:21:52;100015.34;;;19.46;64.73
77590;BME280;66746;51.328;12.332;2023-09-19T09:24:28;100032.16;;;19.30;62.01
77590;BME280;66746;51.328;12.332;2023-09-19T09:26:57;100019.06;;;19.34;62.04
77590;BME280;66746;51.328;12.332;2023-09-19T09:29:40;100026.44;;;19.45;58.64
77590;BME280;66746;51.328;12.332;2023-09-19T09:32:16;100030.00;;;19.58;59.02
77590;BME280;66746;51.328;12.332;2023-09-19T09:34:43;100028.16;;;19.69;52.07
77590;BME280;66746;51.328;12.332;2023-09-19T09:37:13;100027.38;;;19.67;51.46
77590;BME280;66746;51.328;12.332;2023-09-19T09:39:49;100022.84;;;19.44;53.54
77590;BME280;66746;51.328;12.332;2023-09-19T09:42:29;100026.44;;;19.45;52.92
77590;BME280;66746;51.328;12.332;2023-09-19T09:45:12;100029.94;;;19.35;54.40
77590;BME280;66746;51.328;12.332;2023-09-19T09:47:46;100030.09;;;19.45;56.03
77590;BME280;66746;51.328;12.332;2023-09-19T09:50:13;100021.41;;;19.73;55.96
77590;BME280;66746;51.328;12.332;2023-09-19T09:52:46;100029.16;;;19.79;55.81
77590;BME280;66746;51.328;12.332;2023-09-19T09:55:13;100037.78;;;19.75;55.51
77590;BME280;66746;51.328;12.332;2023-09-19T09:57:40;100053.13;;;19.66;55.07
77590;BME280;66746;51.328;12.332;2023-09-19T10:00:10;100047.75;;;19.65;55.22
77590;BME280;66746;51.328;12.332;2023-09-19T10:02:37;100044.66;;;19.69;53.82
77590;BME280;66746;51.328;12.332;2023-09-19T10:05:11;100043.00;;;19.67;54.84
77590;BME280;66746;51.328;12.332;2023-09-19T10:07:39;100039.91;;;19.71;55.52
77590;BME280;66746;51.328;12.332;2023-09-19T10:10:10;100050.91;;;19.71;54.56
77590;BME280;66746;51.328;12.332;2023-09-19T10:12:42;100046.84;;;19.42;54.41
77590;BME280;66746;51.328;12.332;2023-09-19T10:15:11;100048.31;;;19.35;54.72
77590;BME280;66746;51.328;12.332;2023-09-19T10:17:39;100052.91;;;19.34;55.84
77590;BME280;66746;51.328;12.332;2023-09-19T10:20:07;100048.75;;;19.29;57.01
77590;BME280;66746;51.328;12.332;2023-09-19T10:22:34;100055.13;;;19.53;56.60
77590;BME280;66746;51.328;12.332;2023-09-19T10:25:04;100056.63;;;19.57;56.09
77590;BME280;66746;51.328;12.332;2023-09-19T10:27:32;100057.13;;;19.62;56.43
77590;BME280;66746;51.328;12.332;2023-09-19T10:30:00;100055.88;;;19.66;57.39
77590;BME280;66746;51.328;12.332;2023-09-19T10:32:29;100053.94;;;19.79;56.68
77590;BME280;66746;51.328;12.332;2023-09-19T10:34:56;100054.91;;;19.78;54.57
77590;BME280;66746;51.328;12.332;2023-09-19T10:37:24;100059.44;;;19.90;54.71
77590;BME280;66746;51.328;12.332;2023-09-19T10:39:55;100068.19;;;19.84;54.57
77590;BME280;66746;51.328;12.332;2023-09-19T10:42:23;100053.66;;;19.71;55.86
77590;BME280;66746;51.328;12.332;2023-09-19T10:44:54;100063.28;;;19.77;55.04
77590;BME280;66746;51.328;12.332;2023-09-19T10:47:25;100064.41;;;19.63;56.25
77590;BME280;66746;51.328;12.332;2023-09-19T10:49:52;100067.44;;;19.82;55.30
77590;BME280;66746;51.328;12.332;2023-09-19T10:52:21;100057.53;;;19.69;54.77
77590;BME280;66746;51.328;12.332;2023-09-19T10:54:51;100061.66;;;19.63;55.30
77590;BME280;66746;51.328;12.332;2023-09-19T10:57:20;100056.38;;;19.60;53.78
77590;BME280;66746;51.328;12.332;2023-09-19T11:00:01;100064.66;;;19.71;53.61
77590;BME280;66746;51.328;12.332;2023-09-19T11:02:29;100071.28;;;19.69;51.74
77590;BME280;66746;51.328;12.332;2023-09-19T11:05:10;100055.75;;;19.57;52.62
77590;BME280;66746;51.328;12.332;2023-09-19T11:07:59;100066.88;;;19.66;52.62
77590;BME280;66746;51.328;12.332;2023-09-19T11:10:44;100063.16;;;19.67;51.44
77590;BME280;66746;51.328;12.332;2023-09-19T11:13:23;100064.31;;;19.41;51.85
77590;BME280;66746;51.328;12.332;2023-09-19T11:16:04;100071.22;;;19.47;50.89
77590;BME280;66746;51.328;12.332;2023-09-19T11:18:57;100071.38;;;19.56;50.67
77590;BME280;66746;51.328;12.332;2023-09-19T11:21:52;100072.91;;;19.71;51.29
77590;BME280;66746;51.328;12.332;2023-09-19T11:24:31;100061.69;;;19.85;50.21
77590;BME280;66746;51.328;12.332;2023-09-19T11:27:11;100061.44;;;19.88;48.03
77590;BME280;66746;51.328;12.332;2023-09-19T11:29:39;100049.31;;;19.91;48.98
77590;BME280;66746;51.328;12.332;2023-09-19T11:32:06;100029.91;;;20.03;50.31
77590;BME280;66746;51.328;12.332;2023-09-19T11:34:47;100041.44;;;20.31;49.32
77590;BME280;66746;51.328;12.332;2023-09-19T11:40:31;100045.19;;;20.52;49.79
77590;BME280;66746;51.328;12.332;2023-09-19T11:42:57;100041.69;;;20.50;47.65
77590;BME280;66746;51.328;12.332;2023-09-19T11:46:02;100047.28;;;20.59;47.60
77590;BME280;66746;51.328;12.332;2023-09-19T11:48:29;100041.78;;;20.15;47.04
77590;BME280;66746;51.328;12.332;2023-09-19T11:50:57;100036.91;;;20.41;48.51
77590;BME280;66746;51.328;12.332;2023-09-19T11:53:30;100035.91;;;20.53;49.16
77590;BME280;66746;51.328;12.332;2023-09-19T11:55:58;100034.28;;;20.39;47.34
77590;BME280;66746;51.328;12.332;2023-09-19T11:58:25;100036.41;;;20.47;47.08
77590;BME280;66746;51.328;12.332;2023-09-19T12:00:54;100029.84;;;20.70;46.41
77590;BME280;66746;51.328;12.332;2023-09-19T12:03:21;100027.91;;;20.39;46.61
77590;BME280;66746;51.328;12.332;2023-09-19T12:05:48;100035.66;;;20.11;47.65
77590;BME280;66746;51.328;12.332;2023-09-19T12:08:16;100030.78;;;20.37;47.95
77590;BME280;66746;51.328;12.332;2023-09-19T12:10:46;100038.59;;;20.75;49.27
77590;BME280;66746;51.328;12.332;2023-09-19T12:13:16;100045.31;;;20.93;47.88
77590;BME280;66746;51.328;12.332;2023-09-19T12:15:43;100032.59;;;20.70;47.31
77590;BME280;66746;51.328;12.332;2023-09-19T12:18:09;100035.91;;;20.53;48.93
77590;BME280;66746;51.328;12.332;2023-09-19T12:20:43;100034.22;;;20.18;48.03
77590;BME280;66746;51.328;12.332;2023-09-19T12:23:12;100027.66;;;19.97;50.02
77590;BME280;66746;51.328;12.332;2023-09-19T12:25:42;100035.03;;;20.08;50.83
77590;BME280;66746;51.328;12.332;2023-09-19T12:28:09;100030.66;;;20.05;49.49
77590;BME280;66746;51.328;12.332;2023-09-19T12:30:35;100023.13;;;20.07;47.55
77590;BME280;66746;51.328;12.332;2023-09-19T12:33:02;100026.91;;;20.06;48.75
77590;BME280;66746;51.328;12.332;2023-09-19T12:35:30;100024.91;;;20.08;48.84
77590;BME280;66746;51.328;12.332;2023-09-19T12:37:56;100035.16;;;20.17;50.02
77590;BME280;66746;51.328;12.332;2023-09-19T12:40:24;100032.03;;;20.00;47.90
77590;BME280;66746;51.328;12.332;2023-09-19T12:42:55;100028.66;;;19.96;50.48
77590;BME280;66746;51.328;12.332;2023-09-19T12:45:22;100020.41;;;19.96;48.51
77590;BME280;66746;51.328;12.332;2023-09-19T12:48:17;100025.41;;;20.02;49.50
77590;BME280;66746;51.328;12.332;2023-09-19T12:50:59;100016.63;;;20.31;47.21
77590;BME280;66746;51.328;12.332;2023-09-19T12:53:27;100027.66;;;20.31;46.82
77590;BME280;66746;51.328;12.332;2023-09-19T12:55:58;100020.13;;;20.55;49.61
77590;BME280;66746;51.328;12.332;2023-09-19T12:58:26;100026.75;;;20.63;47.46
77590;BME280;66746;51.328;12.332;2023-09-19T13:00:53;100014.56;;;20.66;45.60